Ana Sayfa
METAR-TAF:

METAR-TAF

Havaalanları :

Frederick Municipal Airport

Frederick, Maryland, Amerika Birleşik Devletleri

Enlem: 39-25-03N, Boylam: 077-22-28W, yükseklik: 92 m

Güncel hava durumu gözlemi

Rapor saat 14:56 UTC de 22 dakika önce yapıldı.
Rüzgar batıdan 6 kt
Sıcaklık 33°C
Nem 49%
Basınç 1017 hPa
Görüş mesafesi: 16.1 km
Açık gökyüzü

METAR: KFDK 171456Z 26006KT 10SM SKC 33/21 A3002

Saat: 11:18 (15:18 UTC)


TAF: eksik

4.000'den fazla havaalanı için hava durumu gözlemleri ve tahminleri (METAR ve TAF raporları).

Kullanılabilir istasyonlar harita üzerinde sarı ve kırmızı noktalarla gösterilir.

İstasyonun adını görmek için fareyi noktanın üzerinde gezdirin.

Sonrasında hava gözlem ve tahminlerini görmek için tıklayın.

Haritayı değiştirmek için: yaklaştırmak için siyah artı işaretli yeşil düğmeye ve uzaklaştırmak için de eksi işaretli düğmeye hızla tıklayın; bitişik haritalar için yeşil okları kullanın.


METAR-TAF: